Time;durP1;ratioP1;P1;durP2;ratioP2;P2;SDS_P1;SDS_P2;PMS_P1;PMS_P2;Temp;Humidity;BMP_temperature;BMP_pressure;BME280_temperature;BME280_humidity;BME280_pressure;Samples;Min_cycle;Max_cycle;Signal;HPM_P1;HPM_P2
2021/09/05 00:02:22;;;;;;;6.88;3.70;;;;;;;18.61;56.93;100580.16;5038424;28;20032;-66
2021/09/05 00:04:47;;;;;;;5.70;3.28;;;;;;;18.57;56.53;100579.25;5053042;28;20025;-66
2021/09/05 00:07:13;;;;;;;8.55;3.65;;;;;;;18.40;56.43;100593.97;5052544;28;20140;-67
2021/09/05 00:09:38;;;;;;;5.65;3.50;;;;;;;18.15;56.64;100549.34;5053188;28;20042;-65
2021/09/05 00:12:04;;;;;;;9.10;3.58;;;;;;;18.48;56.13;100592.28;5052359;28;20060;-66
2021/09/05 00:14:30;;;;;;;5.95;3.20;;;;;;;18.35;56.91;100587.84;5052470;28;20463;-67
2021/09/05 00:16:56;;;;;;;7.20;3.53;;;;;;;18.39;56.46;100590.47;5052403;28;20056;-69
2021/09/05 00:19:21;;;;;;;7.72;2.95;;;;;;;18.42;56.90;100595.72;5052026;28;20017;-66
2021/09/05 00:21:47;;;;;;;7.80;3.85;;;;;;;18.38;56.44;100567.81;5052603;28;20029;-69
2021/09/05 00:24:13;;;;;;;6.32;3.38;;;;;;;18.59;56.48;100587.09;5052174;28;20415;-64
2021/09/05 00:26:38;;;;;;;5.65;3.17;;;;;;;18.36;57.53;100551.25;5052043;28;20028;-63
2021/09/05 00:29:04;;;;;;;7.25;3.33;;;;;;;18.47;58.47;100584.41;5051920;28;20037;-63
2021/09/05 00:31:29;;;;;;;7.50;3.47;;;;;;;18.46;59.25;100586.16;5051879;28;20491;-65
2021/09/05 00:33:58;;;;;;;5.53;3.45;;;;;;;18.42;59.24;100584.41;5052301;28;20127;-67
2021/09/05 00:36:24;;;;;;;11.88;3.67;;;;;;;18.50;58.75;100582.69;5052317;28;20033;-68
2021/09/05 00:38:50;;;;;;;5.88;3.63;;;;;;;18.22;59.18;100534.63;4999855;28;20427;-64
2021/09/05 00:41:15;;;;;;;9.38;3.53;;;;;;;18.26;59.46;100572.97;5050051;28;20130;-68
2021/09/05 00:43:59;;;;;;;8.40;3.45;;;;;;;18.20;60.56;100589.47;5051779;28;20039;-65
2021/09/05 00:46:25;;;;;;;10.73;3.45;;;;;;;18.12;60.23;100585.94;5051017;28;20027;-65
2021/09/05 00:48:50;;;;;;;5.18;3.05;;;;;;;18.06;59.96;100588.50;5051566;28;20029;-65
2021/09/05 00:51:16;;;;;;;6.80;3.33;;;;;;;18.08;59.16;100579.81;5051636;28;20056;-73
2021/09/05 00:53:42;;;;;;;6.32;3.45;;;;;;;18.09;58.48;100585.88;5051441;28;20532;-68
2021/09/05 00:56:09;;;;;;;9.88;3.15;;;;;;;18.07;58.24;100588.50;5051808;28;20017;-68
2021/09/05 00:58:36;;;;;;;6.85;3.38;;;;;;;18.10;58.11;100587.66;5051450;28;20094;-67
2021/09/05 01:01:01;;;;;;;8.88;3.53;;;;;;;17.97;58.25;100585.78;5051373;28;20108;-68
2021/09/05 01:03:27;;;;;;;7.75;3.35;;;;;;;17.89;58.58;100555.22;5033744;28;20125;-68
2021/09/05 01:05:52;;;;;;;7.20;3.55;;;;;;;17.94;58.76;100590.16;5051264;28;20020;-67
2021/09/05 01:08:18;;;;;;;8.45;3.65;;;;;;;17.97;59.56;100593.63;5030789;28;20037;-66
2021/09/05 01:10:43;;;;;;;6.80;3.28;;;;;;;18.03;58.93;100594.56;5043233;28;20097;-69
2021/09/05 01:13:10;;;;;;;6.05;3.53;;;;;;;18.15;59.34;100600.75;5051250;28;20029;-66
2021/09/05 01:15:35;;;;;;;10.95;3.88;;;;;;;18.06;59.28;100593.72;5051533;28;20025;-66
2021/09/05 01:18:01;;;;;;;5.65;3.40;;;;;;;18.04;59.22;100603.28;5051399;28;20110;-67
2021/09/05 01:20:26;;;;;;;6.05;3.30;;;;;;;17.95;59.64;100601.47;5045085;28;20080;-65
2021/09/05 01:22:52;;;;;;;8.82;3.70;;;;;;;18.13;59.29;100605.97;5032411;28;20025;-69
2021/09/05 01:25:17;;;;;;;5.25;3.30;;;;;;;18.11;59.36;100597.25;5037819;28;20021;-67
2021/09/05 01:27:43;;;;;;;7.65;3.38;;;;;;;18.12;59.52;100596.38;5051572;28;20024;-67
2021/09/05 01:30:09;;;;;;;8.13;3.67;;;;;;;18.01;59.35;100558.84;5028150;28;20400;-68
2021/09/05 01:32:35;;;;;;;7.25;3.25;;;;;;;18.21;59.69;100604.28;5036535;28;20037;-73
2021/09/05 01:35:02;;;;;;;6.47;3.13;;;;;;;18.04;60.25;100588.47;5046196;28;20506;-65
2021/09/05 01:37:28;;;;;;;9.93;3.90;;;;;;;18.04;59.75;100604.13;5051222;28;20027;-66
2021/09/05 01:39:54;;;;;;;6.55;3.40;;;;;;;18.02;59.94;100605.88;5050837;28;20029;-63
2021/09/05 01:42:19;;;;;;;11.60;3.60;;;;;;;18.03;59.41;100597.19;5050475;28;20025;-67
2021/09/05 01:44:45;;;;;;;5.72;3.05;;;;;;;18.07;58.80;100613.75;5050897;28;20029;-62
2021/09/05 01:47:10;;;;;;;8.63;3.50;;;;;;;18.13;58.42;100605.09;5050596;28;20078;-64
2021/09/05 01:49:36;;;;;;;7.57;3.55;;;;;;;18.11;59.38;100605.94;5051295;28;20099;-69
2021/09/05 01:52:01;;;;;;;7.10;3.97;;;;;;;17.94;59.50;100556.19;5050724;28;20047;-62
2021/09/05 01:54:27;;;;;;;11.70;3.53;;;;;;;18.23;59.41;100594.72;5050878;28;20111;-62
2021/09/05 01:56:52;;;;;;;6.90;3.15;;;;;;;18.27;59.19;100596.50;5051197;28;20029;-65
2021/09/05 01:59:17;;;;;;;9.15;3.40;;;;;;;18.01;59.30;100556.25;5052206;28;20036;-65
2021/09/05 02:01:43;;;;;;;6.00;3.55;;;;;;;18.01;60.04;100577.13;5055183;28;20028;-68
2021/09/05 02:04:08;;;;;;;11.05;4.15;;;;;;;17.98;60.56;100562.31;5055005;28;20017;-62
2021/09/05 02:06:34;;;;;;;23.70;5.00;;;;;;;18.20;62.07;100597.28;5054921;28;20518;-64
2021/09/05 02:08:59;;;;;;;21.95;6.15;;;;;;;18.18;62.58;100592.91;5054784;28;20028;-62
2021/09/05 02:11:25;;;;;;;16.52;5.53;;;;;;;18.21;62.52;100577.28;5054711;28;20060;-64
2021/09/05 02:13:51;;;;;;;21.77;5.97;;;;;;;18.27;62.99;100590.41;5054207;28;20542;-66
2021/09/05 02:16:17;;;;;;;16.27;5.85;;;;;;;18.22;63.25;100603.41;5036828;28;20115;-64
2021/09/05 02:18:43;;;;;;;23.23;5.25;;;;;;;18.09;62.28;100599.84;5054605;28;20442;-63
2021/09/05 02:21:09;;;;;;;11.75;5.05;;;;;;;18.17;61.10;100584.22;5054490;28;20025;-64
2021/09/05 02:23:34;;;;;;;14.80;5.05;;;;;;;18.11;60.55;100560.66;5054627;28;20029;-63
2021/09/05 02:26:00;;;;;;;19.92;6.25;;;;;;;18.44;61.27;100593.09;5054494;28;20029;-66
2021/09/05 02:28:25;;;;;;;17.95;5.07;;;;;;;18.49;59.53;100591.41;5054292;28;20029;-63
2021/09/05 02:30:51;;;;;;;18.55;5.22;;;;;;;18.41;60.22;100578.28;5054633;28;20463;-64
2021/09/05 02:33:17;;;;;;;13.65;4.75;;;;;;;18.09;60.79;100547.59;5051030;28;20033;-63
2021/09/05 02:35:43;;;;;;;17.67;4.80;;;;;;;18.42;62.26;100597.47;5054421;28;20025;-66
2021/09/05 02:38:08;;;;;;;10.75;4.82;;;;;;;18.41;63.09;100596.56;5054299;28;20083;-64
2021/09/05 02:40:34;;;;;;;18.77;4.90;;;;;;;17.96;64.04;100553.59;5054454;28;20025;-64
2021/09/05 02:42:59;;;;;;;8.45;4.65;;;;;;;18.17;64.42;100597.28;5053864;28;20399;-64
2021/09/05 02:45:25;;;;;;;14.45;5.25;;;;;;;18.17;64.33;100602.50;5054297;28;20021;-64
2021/09/05 02:47:50;;;;;;;16.25;4.82;;;;;;;18.04;64.40;100582.38;5054012;28;20031;-64
2021/09/05 02:50:16;;;;;;;11.43;4.68;;;;;;;18.22;64.48;100606.03;5054296;28;20131;-67
2021/09/05 02:52:41;;;;;;;17.50;5.40;;;;;;;18.32;64.04;100603.47;5054124;28;20037;-63
2021/09/05 02:55:07;;;;;;;13.27;4.93;;;;;;;17.93;64.11;100554.41;5054503;28;20021;-64
2021/09/05 02:57:32;;;;;;;14.25;5.40;;;;;;;18.08;64.53;100591.97;5040293;28;20040;-66
2021/09/05 02:59:58;;;;;;;13.55;4.30;;;;;;;18.18;64.50;100593.81;5051908;28;20025;-69
2021/09/05 03:02:23;;;;;;;14.10;5.05;;;;;;;18.15;63.74;100601.63;5053756;28;20095;-65
2021/09/05 03:04:49;;;;;;;11.73;4.40;;;;;;;18.09;63.78;100602.47;5053914;28;20055;-65
2021/09/05 03:07:14;;;;;;;16.63;4.40;;;;;;;18.10;63.84;100598.09;5053780;28;20029;-67
2021/09/05 03:09:40;;;;;;;8.25;4.32;;;;;;;17.95;64.44;100607.53;5053844;28;20116;-64
2021/09/05 03:12:06;;;;;;;12.77;4.60;;;;;;;17.81;64.70;100603.91;5053206;28;20033;-63
2021/09/05 03:14:32;;;;;;;8.38;3.90;;;;;;;17.80;64.33;100610.00;5053832;28;20033;-64
2021/09/05 03:16:57;;;;;;;11.00;4.28;;;;;;;17.74;64.53;100610.78;5053583;28;20045;-68
2021/09/05 03:19:23;;;;;;;9.15;5.28;;;;;;;17.73;64.49;100601.25;5053606;28;20047;-63
2021/09/05 03:21:48;;;;;;;9.82;4.90;;;;;;;17.47;65.20;100595.75;5053304;28;20428;-67
2021/09/05 03:24:14;;;;;;;13.52;5.28;;;;;;;17.54;65.07;100596.69;5053441;28;20028;-63
2021/09/05 03:26:40;;;;;;;6.68;4.57;;;;;;;17.52;65.04;100614.94;5053418;28;20032;-63
2021/09/05 03:29:06;;;;;;;10.15;4.28;;;;;;;17.53;65.29;100621.91;5053560;28;20029;-62
2021/09/05 03:31:31;;;;;;;12.02;4.13;;;;;;;17.56;65.21;100624.56;5053761;28;20021;-66
2021/09/05 03:33:57;;;;;;;14.70;4.57;;;;;;;17.59;65.19;100621.97;5035840;28;20051;-68
2021/09/05 03:36:22;;;;;;;11.32;4.85;;;;;;;17.55;65.45;100614.97;5053538;28;20490;-66
2021/09/05 03:38:48;;;;;;;6.63;3.80;;;;;;;17.40;65.73;100593.94;5053540;28;20036;-63
2021/09/05 03:41:13;;;;;;;11.35;4.38;;;;;;;17.59;65.60;100618.50;5053004;28;20075;-63
2021/09/05 03:43:39;;;;;;;11.90;5.05;;;;;;;17.75;65.89;100632.59;5053341;28;20100;-64
2021/09/05 03:46:04;;;;;;;9.93;4.78;;;;;;;17.64;66.18;100622.03;5053282;28;20031;-68
2021/09/05 03:48:30;;;;;;;12.00;4.40;;;;;;;17.46;66.76;100596.63;5052939;28;20475;-65
2021/09/05 03:50:56;;;;;;;10.23;4.40;;;;;;;17.81;66.49;100637.88;5052978;28;20037;-63
2021/09/05 03:53:21;;;;;;;8.95;4.65;;;;;;;17.87;66.05;100642.25;5052456;28;20048;-64
2021/09/05 03:55:47;;;;;;;10.75;4.55;;;;;;;17.76;66.84;100642.16;5052833;28;20025;-62
2021/09/05 03:58:12;;;;;;;7.88;4.45;;;;;;;17.47;67.02;100598.38;5053111;28;20051;-63
2021/09/05 04:00:38;;;;;;;8.68;4.68;;;;;;;17.68;67.08;100643.81;5052848;28;20598;-63
2021/09/05 04:03:03;;;;;;;10.02;5.10;;;;;;;17.67;66.58;100642.06;5052728;28;20052;-63
2021/09/05 04:05:29;;;;;;;11.95;4.95;;;;;;;17.68;66.70;100642.06;5052870;28;20035;-64
2021/09/05 04:10:36;;;;;;;19.52;6.65;;;;;;;17.71;66.62;100651.69;5052687;28;20025;-62
2021/09/05 04:13:02;;;;;;;20.67;6.53;;;;;;;17.68;67.04;100649.03;5052916;28;20079;-63
2021/09/05 04:15:28;;;;;;;23.30;8.27;;;;;;;17.58;67.54;100650.66;5018037;28;20498;-69
2021/09/05 04:17:55;;;;;;;35.25;8.93;;;;;;;17.50;68.18;100657.56;5052199;28;20057;-63
2021/09/05 04:20:21;;;;;;;40.15;12.10;;;;;;;17.37;66.11;100656.50;5052247;28;20029;-63
2021/09/05 04:22:47;;;;;;;35.55;10.98;;;;;;;17.29;67.43;100662.50;5037850;28;20032;-63
2021/09/05 04:25:13;;;;;;;20.85;8.10;;;;;;;17.15;68.27;100645.81;5052262;28;20060;-63
2021/09/05 04:27:39;;;;;;;34.20;10.20;;;;;;;16.83;65.93;100669.69;5052200;28;20025;-62
2021/09/05 04:30:06;;;;;;;22.45;8.32;;;;;;;16.40;67.13;100667.31;5052179;28;20116;-63
2021/09/05 04:32:32;;;;;;;21.17;8.77;;;;;;;16.11;67.33;100636.47;5052277;28;20028;-63
2021/09/05 04:34:57;;;;;;;26.58;8.45;;;;;;;16.45;66.97;100659.59;5052272;28;20102;-68
2021/09/05 04:37:23;;;;;;;22.40;7.90;;;;;;;16.62;66.69;100675.47;5052039;28;20028;-62
2021/09/05 04:39:50;;;;;;;22.75;9.05;;;;;;;16.65;66.81;100665.97;5052135;28;20413;-63
2021/09/05 04:42:16;;;;;;;28.13;9.60;;;;;;;16.04;66.52;100615.47;5051919;28;20419;-63
2021/09/05 04:44:42;;;;;;;27.95;10.32;;;;;;;15.85;67.89;100634.25;5051979;28;20025;-63
2021/09/05 04:47:08;;;;;;;26.83;8.68;;;;;;;16.29;67.65;100666.28;5051718;28;20025;-62
2021/09/05 04:49:34;;;;;;;22.83;8.07;;;;;;;16.40;67.18;100661.22;5040882;28;20033;-63
2021/09/05 04:52:00;;;;;;;22.70;6.55;;;;;;;16.42;67.29;100664.72;5050988;28;20025;-62
2021/09/05 04:54:25;;;;;;;17.45;5.97;;;;;;;16.40;66.46;100661.22;5051212;28;20154;-62
2021/09/05 04:56:51;;;;;;;19.85;5.85;;;;;;;16.39;66.85;100664.69;5051615;28;20032;-66
2021/09/05 04:59:16;;;;;;;20.95;6.55;;;;;;;16.42;66.54;100662.13;5051696;28;20029;-65
2021/09/05 05:01:42;;;;;;;14.85;6.45;;;;;;;16.54;65.84;100667.53;5051057;28;20025;-66
2021/09/05 05:04:08;;;;;;;17.48;5.57;;;;;;;16.52;65.38;100660.53;5051520;28;20021;-62
2021/09/05 05:06:33;;;;;;;15.50;5.85;;;;;;;16.73;64.55;100679.09;5051550;28;20112;-64
2021/09/05 05:08:59;;;;;;;12.10;5.38;;;;;;;16.76;65.25;100679.16;5051343;28;20044;-64
2021/09/05 05:11:25;;;;;;;16.27;5.63;;;;;;;16.84;64.33;100675.81;5051377;28;20035;-65
2021/09/05 05:13:54;;;;;;;14.93;5.22;;;;;;;16.91;64.26;100672.41;5008603;28;20045;-69
2021/09/05 05:16:22;;;;;;;11.88;5.07;;;;;;;16.84;64.40;100640.16;5005590;28;20125;-69
2021/09/05 05:18:47;;;;;;;14.90;5.75;;;;;;;17.14;65.00;100678.84;5004486;28;20030;-66
2021/09/05 05:21:13;;;;;;;19.73;6.00;;;;;;;17.11;65.49;100677.97;4989346;28;20139;-68
2021/09/05 05:23:38;;;;;;;14.25;6.18;;;;;;;17.13;66.05;100677.13;5009280;28;20040;-69
2021/09/05 05:26:04;;;;;;;12.15;5.60;;;;;;;17.26;64.44;100685.97;5000075;28;20451;-68
2021/09/05 05:28:29;;;;;;;13.30;5.50;;;;;;;17.32;63.63;100682.56;5008488;28;20096;-65
2021/09/05 05:30:55;;;;;;;9.25;4.75;;;;;;;16.84;63.66;100594.97;5008469;28;20033;-66
2021/09/05 05:33:20;;;;;;;10.55;4.60;;;;;;;17.37;63.58;100687.84;5008644;28;20408;-65
2021/09/05 05:35:46;;;;;;;11.93;5.10;;;;;;;17.32;63.12;100684.28;4991916;28;20026;-66
2021/09/05 05:38:11;;;;;;;10.23;4.60;;;;;;;17.42;63.77;100684.44;5009246;28;20127;-68
2021/09/05 05:40:37;;;;;;;10.88;4.95;;;;;;;17.43;64.82;100693.13;5009418;28;20504;-68
2021/09/05 05:43:03;;;;;;;11.07;5.20;;;;;;;17.29;64.28;100659.03;5007286;28;20038;-69
2021/09/05 05:45:29;;;;;;;9.68;4.75;;;;;;;17.26;63.97;100633.78;5039924;28;20040;-67
2021/09/05 05:47:55;;;;;;;6.57;4.65;;;;;;;17.62;65.62;100678.59;5044399;28;20025;-68
2021/09/05 05:50:21;;;;;;;10.35;4.70;;;;;;;17.68;64.98;100677.75;5044148;28;20025;-67
2021/09/05 05:52:46;;;;;;;11.02;5.10;;;;;;;17.49;64.98;100674.94;5040793;28;20048;-66
2021/09/05 05:55:12;;;;;;;8.85;5.80;;;;;;;17.55;65.06;100685.44;5040141;28;20055;-66
2021/09/05 05:57:37;;;;;;;12.30;5.70;;;;;;;17.49;65.65;100687.97;5045282;28;20033;-66
2021/09/05 06:00:05;;;;;;;13.23;5.22;;;;;;;17.21;65.63;100645.00;5012309;28;20029;-66
2021/09/05 06:02:31;;;;;;;12.13;4.97;;;;;;;17.57;65.78;100693.28;5047435;28;20029;-66
2021/09/05 06:04:56;;;;;;;12.45;4.68;;;;;;;17.65;64.04;100699.50;5044044;28;20026;-68
2021/09/05 06:07:21;;;;;;;11.50;4.80;;;;;;;17.77;63.64;100698.75;5040694;28;20075;-66
2021/09/05 06:09:47;;;;;;;9.48;4.88;;;;;;;17.68;65.70;100696.91;5043627;28;20447;-67
2021/09/05 06:12:12;;;;;;;13.65;4.53;;;;;;;17.87;63.95;100705.84;5047075;28;20021;-67
2021/09/05 06:14:38;;;;;;;8.80;4.70;;;;;;;18.03;63.24;100706.00;5040782;28;20017;-66
2021/09/05 06:17:04;;;;;;;8.27;4.03;;;;;;;18.15;63.54;100713.09;5041970;28;20073;-67
2021/09/05 06:19:30;;;;;;;8.90;4.20;;;;;;;18.15;63.30;100692.22;5041419;28;20108;-68
2021/09/05 06:21:56;;;;;;;9.80;4.40;;;;;;;18.08;63.00;100713.06;5040768;28;20029;-69
2021/09/05 06:24:21;;;;;;;7.35;3.72;;;;;;;17.81;63.22;100671.81;5044668;28;20043;-66
2021/09/05 06:26:47;;;;;;;9.07;4.05;;;;;;;18.26;61.58;100714.94;5022175;28;20022;-66
2021/09/05 06:29:12;;;;;;;11.00;3.90;;;;;;;18.36;61.32;100707.19;5023176;28;20049;-67
2021/09/05 06:31:37;;;;;;;9.35;4.13;;;;;;;18.50;60.67;100700.34;5041087;28;20053;-65
2021/09/05 06:34:03;;;;;;;8.13;3.22;;;;;;;18.84;59.38;100707.56;5039072;28;20032;-66
2021/09/05 06:36:29;;;;;;;7.75;3.60;;;;;;;18.95;60.19;100707.66;5040848;28;20021;-64
2021/09/05 06:38:54;;;;;;;6.45;3.53;;;;;;;19.15;58.31;100716.53;5040712;28;20412;-67
2021/09/05 06:41:20;;;;;;;11.55;3.13;;;;;;;19.42;57.34;100711.41;5039539;28;20108;-66
2021/09/05 06:43:45;;;;;;;5.57;3.00;;;;;;;19.52;58.88;100707.97;5041906;28;20021;-65
2021/09/05 06:46:12;;;;;;;9.98;3.92;;;;;;;19.54;59.00;100714.09;4991394;28;20034;-65
2021/09/05 06:48:38;;;;;;;9.95;4.43;;;;;;;19.54;57.02;100708.84;5043241;28;20045;-66
2021/09/05 06:51:03;;;;;;;19.00;5.70;;;;;;;19.84;56.36;100707.22;5045043;28;20454;-67
2021/09/05 06:53:28;;;;;;;16.33;5.25;;;;;;;20.07;55.62;100703.78;5043438;28;20468;-65
2021/09/05 06:55:54;;;;;;;7.68;3.38;;;;;;;20.18;54.73;100709.91;5043640;28;20021;-69
2021/09/05 06:58:19;;;;;;;8.90;3.03;;;;;;;20.38;54.03;100712.53;5045376;28;20028;-65
2021/09/05 07:00:45;;;;;;;8.60;3.35;;;;;;;20.55;54.00;100712.53;5051300;28;20017;-67
2021/09/05 07:03:10;;;;;;;7.93;3.40;;;;;;;20.59;54.50;100708.19;5043526;28;20395;-66
2021/09/05 07:05:36;;;;;;;9.68;3.05;;;;;;;20.65;54.29;100709.03;5050860;28;20369;-66
2021/09/05 07:08:01;;;;;;;4.75;2.90;;;;;;;20.69;53.91;100702.03;5048343;28;20040;-66
2021/09/05 07:10:27;;;;;;;6.00;3.13;;;;;;;20.77;54.11;100702.06;5053301;28;20032;-66
2021/09/05 07:12:53;;;;;;;6.93;3.08;;;;;;;21.06;53.50;100716.88;5051746;28;20045;-66
2021/09/05 07:15:19;;;;;;;6.85;3.42;;;;;;;21.33;53.88;100726.41;5052631;28;21700;-68
2021/09/05 07:17:44;;;;;;;8.32;3.10;;;;;;;21.36;54.84;100710.66;5050923;28;20045;-68
2021/09/05 07:20:11;;;;;;;13.13;3.60;;;;;;;21.53;54.46;100728.09;5053358;28;20044;-67
2021/09/05 07:22:36;;;;;;;9.75;3.88;;;;;;;21.63;53.04;100720.22;5053429;28;20025;-65
2021/09/05 07:25:02;;;;;;;13.18;3.97;;;;;;;21.83;51.81;100724.47;5048199;28;20465;-67
2021/09/05 07:27:29;;;;;;;9.13;3.92;;;;;;;22.01;51.88;100710.34;5032994;28;20467;-66
2021/09/05 07:29:54;;;;;;;10.60;3.78;;;;;;;22.24;50.43;100723.38;5052264;28;20525;-66
2021/09/05 07:32:20;;;;;;;22.00;4.63;;;;;;;22.25;51.67;100726.84;5052410;28;20032;-67
2021/09/05 07:34:46;;;;;;;15.02;5.00;;;;;;;22.34;50.01;100716.25;5053319;28;20039;-65
2021/09/05 07:37:11;;;;;;;20.80;4.20;;;;;;;22.27;49.60;100693.53;5053642;28;20039;-67
2021/09/05 07:39:37;;;;;;;15.00;4.28;;;;;;;22.47;51.76;100714.44;5053512;28;20124;-67
2021/09/05 07:42:03;;;;;;;15.32;4.47;;;;;;;22.10;50.50;100712.91;5053368;28;20021;-67
2021/09/05 07:44:29;;;;;;;13.65;5.10;;;;;;;21.95;50.89;100720.91;5053413;28;20033;-66
2021/09/05 07:46:54;;;;;;;23.65;5.18;;;;;;;22.11;50.58;100709.41;5053016;28;20082;-67
2021/09/05 07:49:20;;;;;;;18.85;4.85;;;;;;;22.24;50.98;100723.38;5053098;28;20021;-67
2021/09/05 07:51:45;;;;;;;9.63;4.18;;;;;;;22.27;50.12;100727.72;5053776;28;20112;-67
2021/09/05 07:54:11;;;;;;;7.10;2.70;;;;;;;22.26;47.38;100720.72;5052917;28;20029;-68
2021/09/05 07:56:36;;;;;;;5.65;2.40;;;;;;;22.28;44.69;100725.06;5051835;28;20059;-67
2021/09/05 07:59:01;;;;;;;5.00;2.40;;;;;;;22.41;50.46;100728.50;5053036;28;20024;-67
2021/09/05 08:01:27;;;;;;;6.53;2.78;;;;;;;22.38;49.47;100727.66;5052888;28;20032;-72
2021/09/05 08:03:53;;;;;;;4.97;2.65;;;;;;;22.22;48.18;100718.97;5052577;28;20024;-67
2021/09/05 08:06:19;;;;;;;5.28;2.75;;;;;;;22.28;47.89;100687.34;5052953;28;20033;-67
2021/09/05 08:08:45;;;;;;;5.38;2.95;;;;;;;22.68;49.60;100723.91;5052809;28;20029;-67
2021/09/05 08:11:10;;;;;;;7.32;3.85;;;;;;;22.81;45.52;100718.53;5052821;28;20532;-67
2021/09/05 08:13:36;;;;;;;7.50;2.60;;;;;;;23.16;47.43;100722.59;5052668;28;20131;-67
2021/09/05 08:16:02;;;;;;;6.63;2.80;;;;;;;23.09;44.95;100717.34;5052655;28;20078;-68
2021/09/05 08:18:33;;;;;;;5.78;3.00;;;;;;;23.19;43.80;100701.47;5052749;28;20049;-68
2021/09/05 08:20:59;;;;;;;8.30;3.08;;;;;;;23.49;43.79;100701.97;5052459;28;20032;-67
2021/09/05 08:23:25;;;;;;;4.97;2.40;;;;;;;23.75;44.68;100705.16;5052699;28;20021;-68
2021/09/05 08:25:50;;;;;;;4.80;2.70;;;;;;;23.74;43.48;100698.13;5044548;28;20039;-67
2021/09/05 08:28:16;;;;;;;6.38;3.20;;;;;;;23.65;43.00;100698.28;5050630;28;20407;-67
2021/09/05 08:30:43;;;;;;;8.95;3.22;;;;;;;23.79;41.38;100702.47;5052119;28;20029;-67
2021/09/05 08:33:10;;;;;;;13.60;5.07;;;;;;;23.97;40.27;100704.00;5051976;28;20112;-68
2021/09/05 08:35:36;;;;;;;11.00;3.63;;;;;;;24.25;39.91;100704.47;5034347;28;20029;-67
2021/09/05 08:38:01;;;;;;;8.55;3.97;;;;;;;24.51;42.53;100700.50;5052361;28;20163;-68
2021/09/05 08:40:28;;;;;;;10.02;4.05;;;;;;;24.67;40.59;100690.56;5052344;28;20395;-66
2021/09/05 08:42:53;;;;;;;10.93;3.65;;;;;;;24.75;38.64;100685.16;5051976;28;20025;-68
2021/09/05 08:45:19;;;;;;;6.65;3.30;;;;;;;24.41;40.70;100694.50;5052046;28;20104;-68
2021/09/05 08:47:45;;;;;;;8.32;3.30;;;;;;;24.39;40.92;100688.41;5052131;28;20031;-67
2021/09/05 08:50:11;;;;;;;12.07;4.68;;;;;;;24.41;42.25;100693.63;5051752;28;20024;-67
2021/09/05 08:52:37;;;;;;;6.35;3.38;;;;;;;24.59;42.24;100687.19;5052077;28;20033;-67
2021/09/05 08:55:07;;;;;;;7.65;3.20;;;;;;;24.44;41.39;100680.41;5051795;28;20407;-67
2021/09/05 08:57:32;;;;;;;6.18;2.83;;;;;;;24.32;41.15;100655.94;5051655;28;20024;-67
2021/09/05 08:59:58;;;;;;;5.60;3.35;;;;;;;24.60;41.97;100689.78;5051628;28;20411;-67
2021/09/05 09:02:23;;;;;;;7.68;3.13;;;;;;;24.46;43.17;100676.84;5051713;28;20091;-66
2021/09/05 09:04:53;;;;;;;6.78;3.33;;;;;;;24.56;41.78;100685.44;5052180;28;20041;-67
2021/09/05 09:07:18;;;;;;;8.38;3.83;;;;;;;24.80;37.23;100678.00;5051706;28;20037;-68
2021/09/05 09:09:58;;;;;;;13.20;4.57;;;;;;;25.10;34.80;100678.34;5051641;28;20029;-68
2021/09/05 09:12:48;;;;;;;9.40;4.50;;;;;;;25.27;38.32;100680.63;5051716;28;20024;-67
2021/09/05 09:15:31;;;;;;;7.20;3.60;;;;;;;25.43;37.17;100682.06;5051676;28;20104;-67
2021/09/05 09:18:02;;;;;;;7.32;3.63;;;;;;;25.68;35.39;100671.84;5051542;28;20057;-67
2021/09/05 09:20:40;;;;;;;10.90;3.80;;;;;;;25.83;34.81;100675.00;5051537;28;20029;-67
2021/09/05 09:23:28;;;;;;;9.33;3.87;;;;;;;25.86;34.59;100671.44;5044410;28;20122;-67
2021/09/05 09:26:11;;;;;;;5.85;3.47;;;;;;;25.78;38.06;100664.56;5050343;28;20032;-67
2021/09/05 09:28:41;;;;;;;7.47;3.45;;;;;;;25.35;36.88;100657.56;5051314;28;20041;-67
2021/09/05 09:31:16;;;;;;;7.57;4.40;;;;;;;25.53;35.25;100656.28;5051299;28;20074;-67
2021/09/05 09:33:43;;;;;;;9.07;4.03;;;;;;;25.72;36.77;100656.78;5051199;28;20495;-67
2021/09/05 09:36:12;;;;;;;10.93;3.92;;;;;;;25.88;34.50;100657.25;5050960;28;20403;-68
2021/09/05 09:38:38;;;;;;;8.35;4.40;;;;;;;25.82;34.02;100663.56;5051511;28;20025;-67
2021/09/05 09:41:15;;;;;;;10.85;4.57;;;;;;;25.76;35.98;100658.44;5051174;28;20033;-65
2021/09/05 09:43:53;;;;;;;5.95;3.67;;;;;;;25.63;35.56;100660.50;5049494;28;20025;-66
2021/09/05 09:46:24;;;;;;;7.80;3.78;;;;;;;25.74;36.34;100654.09;5049195;28;20025;-65
2021/09/05 09:48:52;;;;;;;5.65;3.72;;;;;;;25.54;34.85;100631.59;5044951;28;20033;-68
2021/09/05 09:51:18;;;;;;;6.28;3.80;;;;;;;25.62;34.71;100661.41;5042793;28;20036;-62
2021/09/05 09:53:44;;;;;;;6.55;3.95;;;;;;;25.27;35.33;100618.09;5044194;28;20028;-69
2021/09/05 09:56:16;;;;;;;8.25;4.03;;;;;;;25.32;34.35;100658.50;5046592;28;20025;-69
2021/09/05 09:58:41;;;;;;;8.95;4.38;;;;;;;25.27;34.84;100660.38;5030411;28;20021;-69
2021/09/05 10:01:08;;;;;;;13.65;5.38;;;;;;;25.48;32.99;100652.88;5047765;28;20033;-69
2021/09/05 10:03:35;;;;;;;7.90;3.97;;;;;;;25.83;34.46;100654.75;5046991;28;20025;-74
2021/09/05 10:06:02;;;;;;;9.32;3.97;;;;;;;25.77;34.71;100662.81;5039905;28;20576;-72
2021/09/05 10:08:30;;;;;;;10.02;4.30;;;;;;;25.71;33.09;100659.44;5050387;28;20029;-72
2021/09/05 10:10:58;;;;;;;9.32;4.63;;;;;;;25.77;32.82;100654.88;5050166;28;20037;-70
2021/09/05 10:13:33;;;;;;;10.55;4.40;;;;;;;25.95;31.80;100658.00;5050710;28;20021;-73
2021/09/05 10:16:00;;;;;;;6.32;4.00;;;;;;;25.97;32.31;100646.47;5050216;28;20036;-71
2021/09/05 10:18:27;;;;;;;12.13;4.78;;;;;;;25.88;31.92;100645.81;5050828;28;20388;-74
2021/09/05 10:20:55;;;;;;;11.60;4.68;;;;;;;26.09;32.44;100655.91;5052659;28;20036;-73
2021/09/05 10:23:28;;;;;;;6.28;4.13;;;;;;;26.23;30.94;100655.59;5037815;28;20553;-73
2021/09/05 10:25:55;;;;;;;5.95;4.07;;;;;;;26.29;31.26;100655.44;5048391;28;20028;-71
2021/09/05 10:28:54;;;;;;;11.77;4.60;;;;;;;26.31;30.25;100655.38;5053828;28;20413;-71
2021/09/05 10:31:28;;;;;;;11.10;7.35;;;;;;;26.27;30.16;100630.75;5007799;28;20082;-66
2021/09/05 10:33:55;;;;;;;21.08;5.65;;;;;;;26.38;30.55;100650.78;5007321;28;20050;-68
2021/09/05 10:36:23;;;;;;;13.38;4.70;;;;;;;26.35;31.76;100617.31;5008584;28;20061;-66
2021/09/05 10:38:49;;;;;;;11.77;4.40;;;;;;;26.60;30.25;100646.66;5004555;28;20116;-65
2021/09/05 10:41:20;;;;;;;8.07;4.15;;;;;;;26.38;30.67;100645.50;5005020;28;20042;-68
2021/09/05 10:43:49;;;;;;;6.05;3.97;;;;;;;26.28;30.62;100640.44;5011510;28;20575;-68
2021/09/05 10:46:30;;;;;;;10.93;4.80;;;;;;;26.39;30.97;100647.22;5010404;28;20033;-66
2021/09/05 10:49:00;;;;;;;6.43;3.90;;;;;;;26.51;31.32;100644.28;5008211;28;20037;-65
2021/09/05 10:51:28;;;;;;;11.07;5.13;;;;;;;26.59;30.43;100637.00;5010665;28;20551;-67
2021/09/05 10:53:53;;;;;;;9.50;4.93;;;;;;;26.61;30.37;100648.41;5007497;28;20080;-66
2021/09/05 10:56:25;;;;;;;9.52;4.57;;;;;;;26.61;30.96;100643.09;5006500;28;20057;-66
2021/09/05 10:58:53;;;;;;;6.85;4.22;;;;;;;26.47;30.50;100638.19;5007561;28;20033;-66
2021/09/05 11:01:20;;;;;;;12.93;5.05;;;;;;;26.42;31.31;100620.69;5004539;28;20049;-70
2021/09/05 11:04:17;;;;;;;11.38;5.35;;;;;;;26.47;31.20;100640.81;5008418;28;20081;-65
2021/09/05 11:06:50;;;;;;;9.07;4.35;;;;;;;26.40;32.46;100643.69;5004132;28;20092;-68
2021/09/05 11:12:08;;;;;;;8.55;4.70;;;;;;;26.23;31.87;100639.69;5037958;28;20033;-67
2021/09/05 11:14:46;;;;;;;7.68;4.10;;;;;;;26.07;32.26;100635.69;5035575;28;20043;-69
2021/09/05 11:17:29;;;;;;;7.10;3.95;;;;;;;25.73;33.59;100594.16;5034595;28;20048;-68
2021/09/05 11:20:08;;;;;;;6.20;4.28;;;;;;;25.99;33.44;100633.19;5035535;28;20068;-70
2021/09/05 11:22:41;;;;;;;6.25;3.90;;;;;;;25.89;33.53;100635.19;5036494;28;20041;-68
2021/09/05 11:25:12;;;;;;;6.55;4.28;;;;;;;25.84;31.93;100639.72;5035486;28;20116;-69
2021/09/05 11:27:59;;;;;;;8.88;4.78;;;;;;;25.96;31.92;100631.50;5040493;28;20415;-67